Flight Track Log - Related Links

Times and Time Zones

All times are in EDT time to prevent confusion due to time zone crossing. See the LBQ652 flight status page for this flight to view local times or setup timezone preferences in your user account.

Time Position Orientation Groundspeed Altitude Reporting Facility
EDT Latitude Longitude Course Direction KTS MPH feet Rate Location/Type
Thu 03:57:18 AM 41.8858 -88.3011 276° West 173 199 2,900  Level Chicago Center
Thu 03:58:18 AM 41.8861 -88.3753 270° West 189 217 4,100 1,785 Climbing Chicago Center
Thu 03:59:19 AM 41.8858 -88.4617 270° West 219 252 6,500 2,033 Climbing Chicago Center
Thu 04:00:19 AM 41.8858 -88.5533 270° West 243 280 8,200 1,700 Climbing Chicago Center
Thu 04:01:19 AM 41.8881 -88.6456 272° West 248 285 9,900 1,700 Climbing Chicago Center
Thu 04:02:19 AM 41.8897 -88.7378 271° West 249 287 11,600 1,500 Climbing Chicago Center
Thu 04:03:19 AM 41.8906 -88.8494 271° West 252 290 12,900 1,488 Climbing Chicago Center
Thu 04:04:20 AM 41.8558 -88.9378 242° Southwest 274 315 14,600 1,537 Climbing Chicago Center
Thu 04:05:20 AM 41.8097 -89.0147 231° Southwest 267 307 16,000 1,500 Climbing Chicago Center
Thu 04:06:20 AM 41.7617 -89.0928 230° Southwest 272 313 17,600 1,500 Climbing Chicago Center
Thu 04:07:20 AM 41.7172 -89.1761 234° Southwest 276 318 19,000 1,240 Climbing Chicago Center
Thu 04:08:21 AM 41.6764 -89.2647 238° Southwest 283 326 20,100 1,190 Climbing Chicago Center
Thu 04:09:21 AM 41.6342 -89.3556 238° Southwest 289 333 21,400 1,350 Climbing Chicago Center
Thu 04:10:21 AM 41.5928 -89.4442 238° Southwest 286 329 22,800 1,339 Climbing Chicago Center
Thu 04:11:22 AM 41.5542 -89.5336 240° Southwest 281 323 24,100 1,339 Climbing Chicago Center
Thu 04:12:22 AM 41.5111 -89.6228 237° Southwest 287 330 25,500 1,450 Climbing Chicago Center
Thu 04:13:22 AM 41.4706 -89.7106 238° Southwest 282 325 27,000 1,400 Climbing Chicago Center
Thu 04:14:22 AM 41.4325 -89.7914 238° Southwest 267 307 28,300 1,388 Climbing Chicago Center
Thu 04:15:23 AM 41.3939 -89.8733 238° Southwest 263 303 29,800 1,438 Climbing Chicago Center
Thu 04:16:23 AM 41.3564 -89.9514 237° Southwest 257 296 31,200 1,450 Climbing Chicago Center
Thu 04:17:23 AM 41.3208 -90.0275 238° Southwest 249 287 32,700 1,240 Climbing Chicago Center
Thu 04:18:24 AM 41.2869 -90.0983 238° Southwest 235 270 33,700 645 Climbing Chicago Center
Thu 04:19:24 AM 41.2514 -90.1744 238° Southwest 240 276 34,000 150 Climbing Chicago Center
Thu 04:20:24 AM 41.2097 -90.2606 237° Southwest 265 305 34,000  Level Chicago Center
Thu 04:21:24 AM 41.1650 -90.3544 238° Southwest 291 335 34,000  Level Chicago Center
Thu 04:22:25 AM 41.1228 -90.4458 239° Southwest 293 337 34,000  Level Chicago Center
Thu 04:23:25 AM 41.0778 -90.5383 237° Southwest 297 342 34,000  Level Chicago Center
Thu 04:24:25 AM 41.0328 -90.6297 237° Southwest 297 342 34,000  Level Chicago Center
Thu 04:25:26 AM 40.9881 -90.7228 238° Southwest 300 345 34,000  Level Chicago Center
Thu 04:26:26 AM 40.9431 -90.8153 237° Southwest 300 345 34,000  Level Chicago Center
Thu 04:27:26 AM 40.9000 -90.9067 238° Southwest 295 339 34,000  Level Chicago Center
Thu 04:28:27 AM 40.8536 -91.0000 237° Southwest 299 344 34,000  Level Chicago Center
Thu 04:29:27 AM 40.8092 -91.0908 237° Southwest 296 341 34,000  Level Chicago Center
Thu 04:30:27 AM 40.7644 -91.1828 237° Southwest 297 342 34,000  Level Chicago Center
Thu 04:31:28 AM 40.7192 -91.2742 237° Southwest 298 343 34,000  Level Chicago Center
Thu 04:32:28 AM 40.6661 -91.3850 238° Southwest 299 344 34,000  Level Chicago Center
Thu 04:33:28 AM 40.6217 -91.4747 237° Southwest 297 342 34,000  Level Chicago Center
Thu 04:34:29 AM 40.5767 -91.5639 236° Southwest 295 339 34,000  Level Chicago Center
Thu 04:35:29 AM 40.5317 -91.6539 237° Southwest 297 342 34,000  Level Chicago Center
Thu 04:36:29 AM 40.4869 -91.7425 236° Southwest 294 338 34,000  Level Chicago Center
Thu 04:37:30 AM 40.4428 -91.8325 237° Southwest 295 339 34,000  Level Chicago Center
Thu 04:38:30 AM 40.3981 -91.9214 237° Southwest 294 338 34,000  Level Chicago Center
Thu 04:39:30 AM 40.3528 -92.0103 236° Southwest 294 338 34,000  Level Chicago Center
Thu 04:40:31 AM 40.3069 -92.1014 237° Southwest 300 345 34,000  Level Chicago Center
Thu 04:41:31 AM 40.2617 -92.1906 236° Southwest 296 341 34,000  Level Chicago Center
Thu 04:42:31 AM 40.2153 -92.2814 236° Southwest 299 344 34,000  Level Chicago Center
Thu 04:43:32 AM 40.1694 -92.3731 237° Southwest 299 344 34,000  Level Chicago Center
Thu 04:44:32 AM 40.1233 -92.4633 236° Southwest 298 343 34,000  Level Chicago Center
Thu 04:45:32 AM 40.0767 -92.5525 236° Southwest 296 341 34,000  Level Chicago Center
Thu 04:46:33 AM 40.0297 -92.6425 236° Southwest 298 343 34,000  Level Chicago Center
Thu 04:47:42 AM 39.9833 -92.7328 236° Southwest 301 346 34,000  Level Kansas City Center
Thu 04:48:41 AM 39.9369 -92.8217 236° Southwest 299 344 34,000  Level Kansas City Center
Thu 04:49:42 AM 39.8819 -92.9300 237° Southwest 300 345 34,000  Level Kansas City Center
Thu 04:50:44 AM 39.8342 -93.0194 235° Southwest 301 346 34,000  Level Kansas City Center
Thu 04:51:43 AM 39.7875 -93.1097 236° Southwest 302 348 34,000 -793 Level Kansas City Center
Thu 04:52:45 AM 39.7400 -93.2022 236° Southwest 308 354 32,400 -1,623 Descending Kansas City Center
Thu 04:53:45 AM 39.6900 -93.2950 235° Southwest 314 361 30,700 -1,678 Descending Kansas City Center
Thu 04:54:43 AM 39.6431 -93.3850 236° Southwest 307 353 29,100 -1,636 Descending Kansas City Center
Thu 04:55:46 AM 39.5922 -93.4775 235° Southwest 311 358 27,400 -1,694 Descending Kansas City Center
Thu 04:56:47 AM 39.5397 -93.5831 237° Southwest 346 398 25,600 -1,770 Descending Kansas City Center
Thu 04:57:48 AM 39.4858 -93.6844 235° Southwest 344 396 23,800 -1,785 Descending Kansas City Center
Thu 04:58:48 AM 39.4300 -93.7861 235° Southwest 342 394 22,000 -1,884 Descending Kansas City Center
Thu 04:59:49 AM 39.3736 -93.8947 236° Southwest 326 375 20,000 -1,785 Descending Kansas City Center
Thu 05:00:49 AM 39.3239 -93.9831 234° Southwest 318 366 18,400 -1,488 Descending Kansas City Center
Thu 05:01:50 AM 39.2778 -94.0731 237° Southwest 314 361 17,000 -1,488 Descending Kansas City Center
Thu 05:02:50 AM 39.2308 -94.1597 235° Southwest 309 356 15,400 -1,714 Descending Kansas City Center
Thu 05:03:49 AM 39.1764 -94.2592 235° Southwest 303 349 13,600 -1,664 Descending Kansas City Center
Thu 05:04:49 AM 39.1314 -94.3431 235° Southwest 299 344 12,100 -1,463 Descending Kansas City Center
Thu 05:05:52 AM 39.0869 -94.4244 235° Southwest 292 336 10,600 -1,548 Descending Kansas City Center
Thu 05:06:53 AM 39.0369 -94.5158 235° Southwest 280 322 8,900 -1,537 Descending Kansas City Center
Thu 05:07:53 AM 38.9975 -94.5928 237° Southwest 270 311 7,500 -1,339 Descending Kansas City Center
Thu 05:08:54 AM 38.9644 -94.6706 241° Southwest 260 299 6,200 -1,109 Descending Kansas City Center
Thu 05:09:52 AM 38.9361 -94.7458 244° Southwest 256 295 5,300 -931 Descending Kansas City Center

Login

Don't have an account? Register now (free) for customized features, flight alerts, and more!